sensor_id;sensor_type;location;lat;lon;timestamp;temperature;humidity
16160;DHT22;8185;57.818;15.224;2023-08-08T00:01:14;14.10;99.90
16160;DHT22;8185;57.818;15.224;2023-08-08T00:03:42;14.20;99.90
16160;DHT22;8185;57.818;15.224;2023-08-08T00:06:09;14.10;99.90
16160;DHT22;8185;57.818;15.224;2023-08-08T00:08:36;14.20;99.90
16160;DHT22;8185;57.818;15.224;2023-08-08T00:11:05;14.20;99.90
16160;DHT22;8185;57.818;15.224;2023-08-08T00:13:32;14.20;99.90
16160;DHT22;8185;57.818;15.224;2023-08-08T00:15:59;14.20;99.90
16160;DHT22;8185;57.818;15.224;2023-08-08T00:18:26;14.20;99.90
16160;DHT22;8185;57.818;15.224;2023-08-08T00:20:54;14.10;99.90
16160;DHT22;8185;57.818;15.224;2023-08-08T00:23:21;14.10;99.90
16160;DHT22;8185;57.818;15.224;2023-08-08T00:25:48;14.20;99.90
16160;DHT22;8185;57.818;15.224;2023-08-08T00:28:18;14.10;99.90
16160;DHT22;8185;57.818;15.224;2023-08-08T00:30:45;14.10;99.90
16160;DHT22;8185;57.818;15.224;2023-08-08T00:33:12;14.20;99.90
16160;DHT22;8185;57.818;15.224;2023-08-08T00:35:39;14.20;99.90
16160;DHT22;8185;57.818;15.224;2023-08-08T00:38:07;14.20;99.90
16160;DHT22;8185;57.818;15.224;2023-08-08T00:40:34;14.20;99.90
16160;DHT22;8185;57.818;15.224;2023-08-08T00:43:01;14.20;99.90
16160;DHT22;8185;57.818;15.224;2023-08-08T00:45:30;14.20;99.90
16160;DHT22;8185;57.818;15.224;2023-08-08T00:47:57;14.20;99.90
16160;DHT22;8185;57.818;15.224;2023-08-08T00:50:24;14.20;99.90
16160;DHT22;8185;57.818;15.224;2023-08-08T00:52:52;14.20;99.90
16160;DHT22;8185;57.818;15.224;2023-08-08T00:55:19;14.20;99.90
16160;DHT22;8185;57.818;15.224;2023-08-08T00:57:46;14.20;99.90
16160;DHT22;8185;57.818;15.224;2023-08-08T01:00:14;14.20;99.90
16160;DHT22;8185;57.818;15.224;2023-08-08T01:02:42;14.20;99.90
16160;DHT22;8185;57.818;15.224;2023-08-08T01:05:10;14.20;99.90
16160;DHT22;8185;57.818;15.224;2023-08-08T01:07:43;14.20;99.90
16160;DHT22;8185;57.818;15.224;2023-08-08T01:10:15;14.20;99.90
16160;DHT22;8185;57.818;15.224;2023-08-08T01:12:47;14.20;99.90
16160;DHT22;8185;57.818;15.224;2023-08-08T01:15:17;14.20;99.90
16160;DHT22;8185;57.818;15.224;2023-08-08T01:17:47;14.20;99.90
16160;DHT22;8185;57.818;15.224;2023-08-08T01:20:16;14.10;99.90
16160;DHT22;8185;57.818;15.224;2023-08-08T01:23:01;14.10;99.90
16160;DHT22;8185;57.818;15.224;2023-08-08T01:25:32;14.10;99.90
16160;DHT22;8185;57.818;15.224;2023-08-08T01:27:59;14.00;99.90
16160;DHT22;8185;57.818;15.224;2023-08-08T01:30:27;14.00;99.90
16160;DHT22;8185;57.818;15.224;2023-08-08T01:32:54;14.00;99.90
16160;DHT22;8185;57.818;15.224;2023-08-08T01:35:21;14.00;99.90
16160;DHT22;8185;57.818;15.224;2023-08-08T01:37:54;13.90;99.90
16160;DHT22;8185;57.818;15.224;2023-08-08T01:40:25;14.00;99.90
16160;DHT22;8185;57.818;15.224;2023-08-08T01:42:54;13.90;99.90
16160;DHT22;8185;57.818;15.224;2023-08-08T01:45:22;13.90;99.90
16160;DHT22;8185;57.818;15.224;2023-08-08T01:47:50;13.90;99.90
16160;DHT22;8185;57.818;15.224;2023-08-08T01:50:19;13.90;99.90
16160;DHT22;8185;57.818;15.224;2023-08-08T01:52:46;13.80;99.90
16160;DHT22;8185;57.818;15.224;2023-08-08T01:55:14;13.80;99.90
16160;DHT22;8185;57.818;15.224;2023-08-08T01:57:41;13.80;99.90
16160;DHT22;8185;57.818;15.224;2023-08-08T02:00:10;13.80;99.90
16160;DHT22;8185;57.818;15.224;2023-08-08T02:02:38;13.70;99.90
16160;DHT22;8185;57.818;15.224;2023-08-08T02:05:06;13.70;99.90
16160;DHT22;8185;57.818;15.224;2023-08-08T02:07:33;13.80;99.90
16160;DHT22;8185;57.818;15.224;2023-08-08T02:10:00;13.70;99.90
16160;DHT22;8185;57.818;15.224;2023-08-08T02:12:27;13.70;99.90
16160;DHT22;8185;57.818;15.224;2023-08-08T02:14:55;13.70;99.90
16160;DHT22;8185;57.818;15.224;2023-08-08T02:17:25;13.70;99.90
16160;DHT22;8185;57.818;15.224;2023-08-08T02:19:52;13.70;99.90
16160;DHT22;8185;57.818;15.224;2023-08-08T02:22:19;13.70;99.90
16160;DHT22;8185;57.818;15.224;2023-08-08T02:24:46;13.70;99.90
16160;DHT22;8185;57.818;15.224;2023-08-08T02:27:14;13.70;99.90
16160;DHT22;8185;57.818;15.224;2023-08-08T02:29:41;13.70;99.90
16160;DHT22;8185;57.818;15.224;2023-08-08T02:32:08;13.60;99.90
16160;DHT22;8185;57.818;15.224;2023-08-08T02:34:37;13.60;99.90
16160;DHT22;8185;57.818;15.224;2023-08-08T02:37:04;13.60;99.90
16160;DHT22;8185;57.818;15.224;2023-08-08T02:39:31;13.60;99.90
16160;DHT22;8185;57.818;15.224;2023-08-08T02:41:59;13.60;99.90
16160;DHT22;8185;57.818;15.224;2023-08-08T02:44:26;13.50;99.90
16160;DHT22;8185;57.818;15.224;2023-08-08T02:46:53;13.50;99.90
16160;DHT22;8185;57.818;15.224;2023-08-08T02:49:20;13.50;99.90
16160;DHT22;8185;57.818;15.224;2023-08-08T02:51:48;13.40;99.90
16160;DHT22;8185;57.818;15.224;2023-08-08T02:54:15;13.40;99.90
16160;DHT22;8185;57.818;15.224;2023-08-08T02:56:42;13.40;99.90
16160;DHT22;8185;57.818;15.224;2023-08-08T02:59:09;13.40;99.90
16160;DHT22;8185;57.818;15.224;2023-08-08T03:01:38;13.40;99.90
16160;DHT22;8185;57.818;15.224;2023-08-08T03:04:05;13.40;99.90
16160;DHT22;8185;57.818;15.224;2023-08-08T03:06:32;13.30;99.90
16160;DHT22;8185;57.818;15.224;2023-08-08T03:09:01;13.30;99.90
16160;DHT22;8185;57.818;15.224;2023-08-08T03:11:28;13.30;99.90
16160;DHT22;8185;57.818;15.224;2023-08-08T03:13:56;13.30;99.90
16160;DHT22;8185;57.818;15.224;2023-08-08T03:16:23;13.30;99.90
16160;DHT22;8185;57.818;15.224;2023-08-08T03:18:50;13.30;99.90
16160;DHT22;8185;57.818;15.224;2023-08-08T03:21:17;13.20;99.90
16160;DHT22;8185;57.818;15.224;2023-08-08T03:23:44;13.20;99.90
16160;DHT22;8185;57.818;15.224;2023-08-08T03:26:13;13.20;99.90
16160;DHT22;8185;57.818;15.224;2023-08-08T03:28:40;13.30;99.90
16160;DHT22;8185;57.818;15.224;2023-08-08T03:31:07;13.20;99.90
16160;DHT22;8185;57.818;15.224;2023-08-08T03:33:35;13.20;99.90
16160;DHT22;8185;57.818;15.224;2023-08-08T03:36:02;13.10;99.90
16160;DHT22;8185;57.818;15.224;2023-08-08T03:38:29;13.10;99.90
16160;DHT22;8185;57.818;15.224;2023-08-08T03:40:57;13.00;99.90
16160;DHT22;8185;57.818;15.224;2023-08-08T03:43:25;13.00;99.90
16160;DHT22;8185;57.818;15.224;2023-08-08T03:45:53;13.00;99.90
16160;DHT22;8185;57.818;15.224;2023-08-08T03:48:20;13.00;99.90
16160;DHT22;8185;57.818;15.224;2023-08-08T03:50:47;13.00;99.90
16160;DHT22;8185;57.818;15.224;2023-08-08T03:53:14;13.00;99.90
16160;DHT22;8185;57.818;15.224;2023-08-08T03:55:42;13.00;99.90
16160;DHT22;8185;57.818;15.224;2023-08-08T03:58:09;13.00;99.90
16160;DHT22;8185;57.818;15.224;2023-08-08T04:00:37;13.00;99.90
16160;DHT22;8185;57.818;15.224;2023-08-08T04:03:12;13.00;99.90
16160;DHT22;8185;57.818;15.224;2023-08-08T04:05:40;13.00;99.90
16160;DHT22;8185;57.818;15.224;2023-08-08T04:08:07;13.00;99.90
16160;DHT22;8185;57.818;15.224;2023-08-08T04:10:34;13.00;99.90
16160;DHT22;8185;57.818;15.224;2023-08-08T04:13:01;13.00;99.90
16160;DHT22;8185;57.818;15.224;2023-08-08T04:15:28;13.00;99.90
16160;DHT22;8185;57.818;15.224;2023-08-08T04:17:57;13.00;99.90
16160;DHT22;8185;57.818;15.224;2023-08-08T04:20:24;13.00;99.90
16160;DHT22;8185;57.818;15.224;2023-08-08T04:22:51;13.00;99.90
16160;DHT22;8185;57.818;15.224;2023-08-08T04:25:19;13.00;99.90
16160;DHT22;8185;57.818;15.224;2023-08-08T04:27:47;13.00;99.90
16160;DHT22;8185;57.818;15.224;2023-08-08T04:30:14;12.90;99.90
16160;DHT22;8185;57.818;15.224;2023-08-08T04:32:41;12.90;99.90
16160;DHT22;8185;57.818;15.224;2023-08-08T04:35:10;12.90;99.90
16160;DHT22;8185;57.818;15.224;2023-08-08T04:37:37;12.90;99.90
16160;DHT22;8185;57.818;15.224;2023-08-08T04:40:05;13.00;99.90
16160;DHT22;8185;57.818;15.224;2023-08-08T04:42:34;12.90;99.90
16160;DHT22;8185;57.818;15.224;2023-08-08T04:45:01;13.00;99.90
16160;DHT22;8185;57.818;15.224;2023-08-08T04:47:28;12.90;99.90
16160;DHT22;8185;57.818;15.224;2023-08-08T04:49:56;13.00;99.90
16160;DHT22;8185;57.818;15.224;2023-08-08T04:52:24;13.00;99.90
16160;DHT22;8185;57.818;15.224;2023-08-08T04:54:52;13.00;99.90
16160;DHT22;8185;57.818;15.224;2023-08-08T04:57:19;13.00;99.90
16160;DHT22;8185;57.818;15.224;2023-08-08T04:59:46;13.00;99.90
16160;DHT22;8185;57.818;15.224;2023-08-08T05:02:13;13.00;99.90
16160;DHT22;8185;57.818;15.224;2023-08-08T05:04:41;13.00;99.90
16160;DHT22;8185;57.818;15.224;2023-08-08T05:07:08;13.00;99.90
16160;DHT22;8185;57.818;15.224;2023-08-08T05:09:37;13.00;99.90
16160;DHT22;8185;57.818;15.224;2023-08-08T05:12:04;13.00;99.90
16160;DHT22;8185;57.818;15.224;2023-08-08T05:14:32;13.00;99.90
16160;DHT22;8185;57.818;15.224;2023-08-08T05:17:01;13.00;99.90
16160;DHT22;8185;57.818;15.224;2023-08-08T05:19:28;12.90;99.90
16160;DHT22;8185;57.818;15.224;2023-08-08T05:21:55;13.00;99.90
16160;DHT22;8185;57.818;15.224;2023-08-08T05:24:22;13.00;99.90
16160;DHT22;8185;57.818;15.224;2023-08-08T05:26:51;13.00;99.90
16160;DHT22;8185;57.818;15.224;2023-08-08T05:29:19;13.00;99.90
16160;DHT22;8185;57.818;15.224;2023-08-08T05:31:47;13.00;99.90
16160;DHT22;8185;57.818;15.224;2023-08-08T05:34:14;13.00;99.90
16160;DHT22;8185;57.818;15.224;2023-08-08T05:36:42;12.90;99.90
16160;DHT22;8185;57.818;15.224;2023-08-08T05:39:09;13.00;99.90
16160;DHT22;8185;57.818;15.224;2023-08-08T05:41:36;13.00;99.90
16160;DHT22;8185;57.818;15.224;2023-08-08T05:44:05;13.10;99.90
16160;DHT22;8185;57.818;15.224;2023-08-08T05:46:32;13.10;99.90
16160;DHT22;8185;57.818;15.224;2023-08-08T05:48:59;13.10;99.90
16160;DHT22;8185;57.818;15.224;2023-08-08T05:51:27;13.10;99.90
16160;DHT22;8185;57.818;15.224;2023-08-08T05:53:54;13.10;99.90
16160;DHT22;8185;57.818;15.224;2023-08-08T05:56:21;13.00;99.90
16160;DHT22;8185;57.818;15.224;2023-08-08T05:58:48;13.10;99.90
16160;DHT22;8185;57.818;15.224;2023-08-08T06:01:17;13.10;99.90
16160;DHT22;8185;57.818;15.224;2023-08-08T06:03:44;13.20;99.90
16160;DHT22;8185;57.818;15.224;2023-08-08T06:06:13;13.20;99.90
16160;DHT22;8185;57.818;15.224;2023-08-08T06:08:40;13.20;99.90
16160;DHT22;8185;57.818;15.224;2023-08-08T06:11:07;13.20;99.90
16160;DHT22;8185;57.818;15.224;2023-08-08T06:13:35;13.20;99.90
16160;DHT22;8185;57.818;15.224;2023-08-08T06:16:02;13.10;99.90
16160;DHT22;8185;57.818;15.224;2023-08-08T06:18:33;13.10;99.90
16160;DHT22;8185;57.818;15.224;2023-08-08T06:21:01;13.10;99.90
16160;DHT22;8185;57.818;15.224;2023-08-08T06:23:28;13.10;99.90
16160;DHT22;8185;57.818;15.224;2023-08-08T06:25:55;13.10;99.90
16160;DHT22;8185;57.818;15.224;2023-08-08T06:28:23;13.10;99.90
16160;DHT22;8185;57.818;15.224;2023-08-08T06:30:51;13.10;99.90
16160;DHT22;8185;57.818;15.224;2023-08-08T06:33:18;13.10;99.90
16160;DHT22;8185;57.818;15.224;2023-08-08T06:35:46;13.00;99.90
16160;DHT22;8185;57.818;15.224;2023-08-08T06:38:14;12.90;99.90
16160;DHT22;8185;57.818;15.224;2023-08-08T06:40:41;13.00;99.90
16160;DHT22;8185;57.818;15.224;2023-08-08T06:43:08;12.90;99.90
16160;DHT22;8185;57.818;15.224;2023-08-08T06:45:35;12.90;99.90
16160;DHT22;8185;57.818;15.224;2023-08-08T06:48:03;12.90;99.90
16160;DHT22;8185;57.818;15.224;2023-08-08T06:50:30;12.90;99.90
16160;DHT22;8185;57.818;15.224;2023-08-08T06:52:59;13.00;99.90
16160;DHT22;8185;57.818;15.224;2023-08-08T06:55:26;13.10;99.90
16160;DHT22;8185;57.818;15.224;2023-08-08T06:57:53;13.10;99.90
16160;DHT22;8185;57.818;15.224;2023-08-08T07:00:21;13.20;99.90
16160;DHT22;8185;57.818;15.224;2023-08-08T07:02:48;13.20;99.90
16160;DHT22;8185;57.818;15.224;2023-08-08T07:05:15;13.20;99.90
16160;DHT22;8185;57.818;15.224;2023-08-08T07:07:43;13.20;99.90
16160;DHT22;8185;57.818;15.224;2023-08-08T07:10:12;13.10;99.90
16160;DHT22;8185;57.818;15.224;2023-08-08T07:12:39;13.00;99.90
16160;DHT22;8185;57.818;15.224;2023-08-08T07:15:07;12.80;99.90
16160;DHT22;8185;57.818;15.224;2023-08-08T07:17:34;12.80;99.90
16160;DHT22;8185;57.818;15.224;2023-08-08T07:20:02;13.00;99.90
16160;DHT22;8185;57.818;15.224;2023-08-08T07:22:31;12.90;99.90
16160;DHT22;8185;57.818;15.224;2023-08-08T07:24:59;12.90;99.90
16160;DHT22;8185;57.818;15.224;2023-08-08T07:27:27;12.90;99.90
16160;DHT22;8185;57.818;15.224;2023-08-08T07:29:55;13.00;99.90
16160;DHT22;8185;57.818;15.224;2023-08-08T07:32:22;13.10;99.90
16160;DHT22;8185;57.818;15.224;2023-08-08T07:34:49;13.30;99.90
16160;DHT22;8185;57.818;15.224;2023-08-08T07:37:16;13.40;99.90
16160;DHT22;8185;57.818;15.224;2023-08-08T07:39:43;13.30;99.90
16160;DHT22;8185;57.818;15.224;2023-08-08T07:42:11;13.30;99.90
16160;DHT22;8185;57.818;15.224;2023-08-08T07:44:39;13.20;99.90
16160;DHT22;8185;57.818;15.224;2023-08-08T07:47:07;13.20;99.90
16160;DHT22;8185;57.818;15.224;2023-08-08T07:49:34;13.10;99.90
16160;DHT22;8185;57.818;15.224;2023-08-08T07:52:01;13.10;99.90
16160;DHT22;8185;57.818;15.224;2023-08-08T07:54:28;13.10;99.90
16160;DHT22;8185;57.818;15.224;2023-08-08T07:56:56;13.10;99.90
16160;DHT22;8185;57.818;15.224;2023-08-08T07:59:23;13.10;99.90
16160;DHT22;8185;57.818;15.224;2023-08-08T08:01:52;13.00;99.90
16160;DHT22;8185;57.818;15.224;2023-08-08T08:04:19;13.10;99.90
16160;DHT22;8185;57.818;15.224;2023-08-08T08:06:46;13.20;99.90
16160;DHT22;8185;57.818;15.224;2023-08-08T08:09:14;13.10;99.90
16160;DHT22;8185;57.818;15.224;2023-08-08T08:11:41;13.30;99.90
16160;DHT22;8185;57.818;15.224;2023-08-08T08:14:08;13.40;99.90
16160;DHT22;8185;57.818;15.224;2023-08-08T08:16:36;13.50;99.90
16160;DHT22;8185;57.818;15.224;2023-08-08T08:19:05;13.40;99.90
16160;DHT22;8185;57.818;15.224;2023-08-08T08:21:32;13.40;99.90
16160;DHT22;8185;57.818;15.224;2023-08-08T08:24:00;13.30;99.90
16160;DHT22;8185;57.818;15.224;2023-08-08T08:26:27;13.40;99.90
16160;DHT22;8185;57.818;15.224;2023-08-08T08:28:55;13.40;99.90
16160;DHT22;8185;57.818;15.224;2023-08-08T08:31:22;13.40;99.90
16160;DHT22;8185;57.818;15.224;2023-08-08T08:33:50;13.30;99.90
16160;DHT22;8185;57.818;15.224;2023-08-08T08:36:19;13.40;99.90
16160;DHT22;8185;57.818;15.224;2023-08-08T08:38:47;13.50;99.90
16160;DHT22;8185;57.818;15.224;2023-08-08T08:41:17;13.60;99.90
16160;DHT22;8185;57.818;15.224;2023-08-08T08:43:45;13.60;99.90
16160;DHT22;8185;57.818;15.224;2023-08-08T08:46:12;13.50;99.90
16160;DHT22;8185;57.818;15.224;2023-08-08T08:48:42;13.40;99.90
16160;DHT22;8185;57.818;15.224;2023-08-08T08:51:09;13.50;99.90
16160;DHT22;8185;57.818;15.224;2023-08-08T08:53:38;13.60;99.90
16160;DHT22;8185;57.818;15.224;2023-08-08T08:56:09;13.70;99.90
16160;DHT22;8185;57.818;15.224;2023-08-08T08:58:39;13.70;99.90
16160;DHT22;8185;57.818;15.224;2023-08-08T09:01:07;14.00;99.90
16160;DHT22;8185;57.818;15.224;2023-08-08T09:03:36;14.10;99.90
16160;DHT22;8185;57.818;15.224;2023-08-08T09:06:05;13.90;99.90
16160;DHT22;8185;57.818;15.224;2023-08-08T09:08:32;13.60;99.90
16160;DHT22;8185;57.818;15.224;2023-08-08T09:11:01;13.60;99.90
16160;DHT22;8185;57.818;15.224;2023-08-08T09:13:36;13.70;99.90
16160;DHT22;8185;57.818;15.224;2023-08-08T09:16:05;13.80;99.90
16160;DHT22;8185;57.818;15.224;2023-08-08T09:18:32;13.50;99.90
16160;DHT22;8185;57.818;15.224;2023-08-08T09:21:00;13.40;99.90
16160;DHT22;8185;57.818;15.224;2023-08-08T09:23:27;13.60;99.90
16160;DHT22;8185;57.818;15.224;2023-08-08T09:25:54;13.80;99.90
16160;DHT22;8185;57.818;15.224;2023-08-08T09:28:23;13.90;99.90
16160;DHT22;8185;57.818;15.224;2023-08-08T09:30:51;13.80;99.90
16160;DHT22;8185;57.818;15.224;2023-08-08T09:33:19;13.50;99.90
16160;DHT22;8185;57.818;15.224;2023-08-08T09:35:46;13.60;99.90
16160;DHT22;8185;57.818;15.224;2023-08-08T09:38:13;13.70;99.90
16160;DHT22;8185;57.818;15.224;2023-08-08T09:40:40;13.70;99.90
16160;DHT22;8185;57.818;15.224;2023-08-08T09:43:08;13.60;99.90
16160;DHT22;8185;57.818;15.224;2023-08-08T09:45:39;13.60;99.90
16160;DHT22;8185;57.818;15.224;2023-08-08T09:48:08;13.70;99.90
16160;DHT22;8185;57.818;15.224;2023-08-08T09:50:36;13.80;99.90
16160;DHT22;8185;57.818;15.224;2023-08-08T09:53:03;13.80;99.90
16160;DHT22;8185;57.818;15.224;2023-08-08T09:55:32;13.90;99.90
16160;DHT22;8185;57.818;15.224;2023-08-08T09:58:00;14.00;99.90
16160;DHT22;8185;57.818;15.224;2023-08-08T10:00:29;13.80;99.90
16160;DHT22;8185;57.818;15.224;2023-08-08T10:03:01;13.60;99.90
16160;DHT22;8185;57.818;15.224;2023-08-08T10:05:29;13.60;99.90
16160;DHT22;8185;57.818;15.224;2023-08-08T10:07:56;13.50;99.90
16160;DHT22;8185;57.818;15.224;2023-08-08T10:10:24;13.60;99.90
16160;DHT22;8185;57.818;15.224;2023-08-08T10:12:52;13.50;99.90
16160;DHT22;8185;57.818;15.224;2023-08-08T10:15:25;13.40;99.90
16160;DHT22;8185;57.818;15.224;2023-08-08T10:17:54;13.40;99.90
16160;DHT22;8185;57.818;15.224;2023-08-08T10:20:24;13.40;99.90
16160;DHT22;8185;57.818;15.224;2023-08-08T10:22:54;13.30;99.90
16160;DHT22;8185;57.818;15.224;2023-08-08T10:25:24;13.20;99.90
16160;DHT22;8185;57.818;15.224;2023-08-08T10:28:03;13.20;99.90
16160;DHT22;8185;57.818;15.224;2023-08-08T10:30:42;13.20;99.90
16160;DHT22;8185;57.818;15.224;2023-08-08T10:33:16;13.30;99.90
16160;DHT22;8185;57.818;15.224;2023-08-08T10:35:54;13.30;99.90
16160;DHT22;8185;57.818;15.224;2023-08-08T10:38:23;13.30;99.90
16160;DHT22;8185;57.818;15.224;2023-08-08T10:40:56;13.40;99.90
16160;DHT22;8185;57.818;15.224;2023-08-08T10:43:26;13.50;99.90
16160;DHT22;8185;57.818;15.224;2023-08-08T10:45:57;13.70;99.90
16160;DHT22;8185;57.818;15.224;2023-08-08T10:48:25;13.50;99.90
16160;DHT22;8185;57.818;15.224;2023-08-08T10:50:55;13.30;99.90
16160;DHT22;8185;57.818;15.224;2023-08-08T10:53:26;13.10;99.90
16160;DHT22;8185;57.818;15.224;2023-08-08T10:56:00;13.00;99.90
16160;DHT22;8185;57.818;15.224;2023-08-08T10:58:38;12.90;99.90
16160;DHT22;8185;57.818;15.224;2023-08-08T11:01:06;12.90;99.90
16160;DHT22;8185;57.818;15.224;2023-08-08T11:03:35;12.90;99.90
16160;DHT22;8185;57.818;15.224;2023-08-08T11:06:06;13.00;99.90
16160;DHT22;8185;57.818;15.224;2023-08-08T11:08:34;13.00;99.90
16160;DHT22;8185;57.818;15.224;2023-08-08T11:11:02;13.10;99.90
16160;DHT22;8185;57.818;15.224;2023-08-08T11:13:29;13.10;99.90
16160;DHT22;8185;57.818;15.224;2023-08-08T11:15:57;12.90;99.90
16160;DHT22;8185;57.818;15.224;2023-08-08T11:18:25;13.00;99.90
16160;DHT22;8185;57.818;15.224;2023-08-08T11:20:54;13.10;99.90
16160;DHT22;8185;57.818;15.224;2023-08-08T11:23:23;13.00;99.90
16160;DHT22;8185;57.818;15.224;2023-08-08T11:25:50;12.90;99.90
16160;DHT22;8185;57.818;15.224;2023-08-08T11:28:17;12.90;99.90
16160;DHT22;8185;57.818;15.224;2023-08-08T11:30:45;12.70;99.90
16160;DHT22;8185;57.818;15.224;2023-08-08T11:33:14;12.80;99.90
16160;DHT22;8185;57.818;15.224;2023-08-08T11:35:44;12.80;99.90
16160;DHT22;8185;57.818;15.224;2023-08-08T11:38:15;12.90;99.90
16160;DHT22;8185;57.818;15.224;2023-08-08T11:40:44;13.10;99.90
16160;DHT22;8185;57.818;15.224;2023-08-08T11:43:12;12.90;99.90
16160;DHT22;8185;57.818;15.224;2023-08-08T11:45:39;12.90;99.90
16160;DHT22;8185;57.818;15.224;2023-08-08T11:48:08;12.90;99.90
16160;DHT22;8185;57.818;15.224;2023-08-08T11:50:37;12.90;99.90
16160;DHT22;8185;57.818;15.224;2023-08-08T11:53:07;12.90;99.90
16160;DHT22;8185;57.818;15.224;2023-08-08T11:55:36;12.80;99.90
16160;DHT22;8185;57.818;15.224;2023-08-08T11:58:05;12.70;99.90
16160;DHT22;8185;57.818;15.224;2023-08-08T12:00:32;12.80;99.90
16160;DHT22;8185;57.818;15.224;2023-08-08T12:03:01;12.80;99.90
16160;DHT22;8185;57.818;15.224;2023-08-08T12:05:36;12.80;99.90
16160;DHT22;8185;57.818;15.224;2023-08-08T12:08:05;12.80;99.90
16160;DHT22;8185;57.818;15.224;2023-08-08T12:10:32;12.80;99.90
16160;DHT22;8185;57.818;15.224;2023-08-08T12:12:59;12.70;99.90
16160;DHT22;8185;57.818;15.224;2023-08-08T12:15:31;12.70;99.90
16160;DHT22;8185;57.818;15.224;2023-08-08T12:17:58;12.60;99.90
16160;DHT22;8185;57.818;15.224;2023-08-08T12:20:27;12.60;99.90
16160;DHT22;8185;57.818;15.224;2023-08-08T12:22:56;12.60;99.90
16160;DHT22;8185;57.818;15.224;2023-08-08T12:25:23;12.70;99.90
16160;DHT22;8185;57.818;15.224;2023-08-08T12:27:51;12.70;99.90
16160;DHT22;8185;57.818;15.224;2023-08-08T12:30:18;12.60;99.90
16160;DHT22;8185;57.818;15.224;2023-08-08T12:32:47;12.60;99.90
16160;DHT22;8185;57.818;15.224;2023-08-08T12:35:14;12.70;99.90
16160;DHT22;8185;57.818;15.224;2023-08-08T12:37:42;12.70;99.90
16160;DHT22;8185;57.818;15.224;2023-08-08T12:40:10;12.60;99.90
16160;DHT22;8185;57.818;15.224;2023-08-08T12:42:37;12.60;99.90
16160;DHT22;8185;57.818;15.224;2023-08-08T12:45:05;12.60;99.90
16160;DHT22;8185;57.818;15.224;2023-08-08T12:47:33;12.70;99.90
16160;DHT22;8185;57.818;15.224;2023-08-08T12:50:04;12.80;99.90
16160;DHT22;8185;57.818;15.224;2023-08-08T12:52:31;12.90;99.90
16160;DHT22;8185;57.818;15.224;2023-08-08T12:54:58;12.90;99.90
16160;DHT22;8185;57.818;15.224;2023-08-08T12:57:25;12.80;99.90
16160;DHT22;8185;57.818;15.224;2023-08-08T12:59:53;12.80;99.90
16160;DHT22;8185;57.818;15.224;2023-08-08T13:02:20;12.60;99.90
16160;DHT22;8185;57.818;15.224;2023-08-08T13:04:47;12.60;99.90
16160;DHT22;8185;57.818;15.224;2023-08-08T13:07:16;12.60;99.90
16160;DHT22;8185;57.818;15.224;2023-08-08T13:09:43;12.50;99.90
16160;DHT22;8185;57.818;15.224;2023-08-08T13:12:11;12.50;99.90
16160;DHT22;8185;57.818;15.224;2023-08-08T13:14:38;12.20;99.90
16160;DHT22;8185;57.818;15.224;2023-08-08T13:17:05;12.10;99.90
16160;DHT22;8185;57.818;15.224;2023-08-08T13:19:32;12.00;99.90
16160;DHT22;8185;57.818;15.224;2023-08-08T13:21:59;12.00;99.90
16160;DHT22;8185;57.818;15.224;2023-08-08T13:24:28;11.90;99.90
16160;DHT22;8185;57.818;15.224;2023-08-08T13:26:55;11.90;99.90
16160;DHT22;8185;57.818;15.224;2023-08-08T13:29:22;12.00;99.90
16160;DHT22;8185;57.818;15.224;2023-08-08T13:31:50;12.00;99.90
16160;DHT22;8185;57.818;15.224;2023-08-08T13:34:17;11.90;99.90
16160;DHT22;8185;57.818;15.224;2023-08-08T13:36:44;12.00;99.90
16160;DHT22;8185;57.818;15.224;2023-08-08T13:39:12;11.90;99.90
16160;DHT22;8185;57.818;15.224;2023-08-08T13:41:40;11.80;99.90
16160;DHT22;8185;57.818;15.224;2023-08-08T13:44:08;11.80;99.90
16160;DHT22;8185;57.818;15.224;2023-08-08T13:46:35;11.80;99.90
16160;DHT22;8185;57.818;15.224;2023-08-08T13:49:02;11.70;99.90
16160;DHT22;8185;57.818;15.224;2023-08-08T13:51:29;11.60;99.90
16160;DHT22;8185;57.818;15.224;2023-08-08T13:53:57;11.60;99.90
16160;DHT22;8185;57.818;15.224;2023-08-08T13:56:24;11.70;99.90
16160;DHT22;8185;57.818;15.224;2023-08-08T13:58:53;11.70;99.90
16160;DHT22;8185;57.818;15.224;2023-08-08T14:01:20;11.70;99.90
16160;DHT22;8185;57.818;15.224;2023-08-08T14:03:48;11.60;99.90
16160;DHT22;8185;57.818;15.224;2023-08-08T14:06:16;11.50;99.90
16160;DHT22;8185;57.818;15.224;2023-08-08T14:08:43;11.40;99.90
16160;DHT22;8185;57.818;15.224;2023-08-08T14:11:12;11.20;99.90
16160;DHT22;8185;57.818;15.224;2023-08-08T14:13:39;11.10;99.90
16160;DHT22;8185;57.818;15.224;2023-08-08T14:16:08;11.00;99.90
16160;DHT22;8185;57.818;15.224;2023-08-08T14:18:35;11.00;99.90
16160;DHT22;8185;57.818;15.224;2023-08-08T14:21:02;10.90;99.90
16160;DHT22;8185;57.818;15.224;2023-08-08T14:23:30;10.90;99.90
16160;DHT22;8185;57.818;15.224;2023-08-08T14:25:57;10.90;99.90
16160;DHT22;8185;57.818;15.224;2023-08-08T14:28:24;10.80;99.90
16160;DHT22;8185;57.818;15.224;2023-08-08T14:30:52;10.70;99.90
16160;DHT22;8185;57.818;15.224;2023-08-08T14:33:20;10.70;99.90
16160;DHT22;8185;57.818;15.224;2023-08-08T14:35:48;10.70;99.90
16160;DHT22;8185;57.818;15.224;2023-08-08T14:38:15;10.70;99.90
16160;DHT22;8185;57.818;15.224;2023-08-08T14:40:42;10.70;99.90
16160;DHT22;8185;57.818;15.224;2023-08-08T14:43:10;10.70;99.90
16160;DHT22;8185;57.818;15.224;2023-08-08T14:45:37;10.80;99.90
16160;DHT22;8185;57.818;15.224;2023-08-08T14:48:05;10.80;99.90
16160;DHT22;8185;57.818;15.224;2023-08-08T14:50:34;10.80;99.90
16160;DHT22;8185;57.818;15.224;2023-08-08T14:53:01;10.80;99.90
16160;DHT22;8185;57.818;15.224;2023-08-08T14:55:29;10.80;99.90
16160;DHT22;8185;57.818;15.224;2023-08-08T14:57:56;10.70;99.90
16160;DHT22;8185;57.818;15.224;2023-08-08T15:00:23;10.80;99.90
16160;DHT22;8185;57.818;15.224;2023-08-08T15:02:50;10.80;99.90
16160;DHT22;8185;57.818;15.224;2023-08-08T15:05:18;10.80;99.90
16160;DHT22;8185;57.818;15.224;2023-08-08T15:07:46;10.80;99.90
16160;DHT22;8185;57.818;15.224;2023-08-08T15:10:13;10.80;99.90
16160;DHT22;8185;57.818;15.224;2023-08-08T15:12:41;10.80;99.90
16160;DHT22;8185;57.818;15.224;2023-08-08T15:15:09;10.80;99.90
16160;DHT22;8185;57.818;15.224;2023-08-08T15:17:36;10.80;99.90
16160;DHT22;8185;57.818;15.224;2023-08-08T15:20:05;10.70;99.90
16160;DHT22;8185;57.818;15.224;2023-08-08T15:22:33;10.80;99.90
16160;DHT22;8185;57.818;15.224;2023-08-08T15:25:01;10.90;99.90
16160;DHT22;8185;57.818;15.224;2023-08-08T15:27:29;10.90;99.90
16160;DHT22;8185;57.818;15.224;2023-08-08T15:29:57;10.90;99.90
16160;DHT22;8185;57.818;15.224;2023-08-08T15:32:24;10.80;99.90
16160;DHT22;8185;57.818;15.224;2023-08-08T15:34:51;10.90;99.90